Time;durP1;ratioP1;P1;durP2;ratioP2;P2;SDS_P1;SDS_P2;PMS_P1;PMS_P2;Temp;Humidity;BMP_temperature;BMP_pressure;BME280_temperature;BME280_humidity;BME280_pressure;Samples;Min_cycle;Max_cycle;Signal;HPM_P1;HPM_P2
2023/03/10 04:01:54;;;;;;;1.77;0.60;;;9.60;88.60;;;;;;5377933;23;20990;-73
2023/03/10 04:04:21;;;;;;;2.00;0.70;;;9.60;88.60;;;;;;4977232;28;20450;-73
2023/03/10 04:06:47;;;;;;;1.77;0.60;;;9.70;88.40;;;;;;4977880;28;20471;-72
2023/03/10 04:09:14;;;;;;;2.13;0.80;;;9.70;88.20;;;;;;4977192;28;20450;-74
2023/03/10 04:11:41;;;;;;;1.83;0.70;;;9.70;88.40;;;;;;4976639;28;20521;-74
2023/03/10 04:14:07;;;;;;;2.10;0.80;;;9.60;88.60;;;;;;5079348;23;20456;-72
2023/03/10 04:16:34;;;;;;;1.93;0.60;;;9.70;88.50;;;;;;4977974;28;20431;-71
2023/03/10 04:19:02;;;;;;;1.93;0.70;;;9.80;88.30;;;;;;4977565;28;20859;-71
2023/03/10 04:21:29;;;;;;;2.00;0.70;;;9.80;88.00;;;;;;4978075;28;20529;-72
2023/03/10 04:23:55;;;;;;;2.60;0.63;;;9.80;87.90;;;;;;4977139;28;21189;-72
2023/03/10 04:26:22;;;;;;;2.10;0.70;;;9.80;87.80;;;;;;4977365;28;20513;-72
2023/03/10 04:28:48;;;;;;;1.83;0.67;;;9.70;88.10;;;;;;4977346;28;20524;-71
2023/03/10 04:31:17;;;;;;;1.77;0.60;;;9.80;87.90;;;;;;4976864;28;20454;-71
2023/03/10 04:33:44;;;;;;;2.00;0.70;;;9.80;87.80;;;;;;4977074;28;20546;-71
2023/03/10 04:36:12;;;;;;;2.20;0.80;;;9.80;87.40;;;;;;4977080;28;20805;-71
2023/03/10 04:38:40;;;;;;;1.90;0.80;;;9.80;87.50;;;;;;4977073;28;20446;-74
2023/03/10 04:41:08;;;;;;;2.30;0.70;;;9.70;87.50;;;;;;4977287;28;20456;-72
2023/03/10 04:43:35;;;;;;;2.23;0.80;;;9.80;87.50;;;;;;4977152;28;20473;-71
2023/03/10 04:46:01;;;;;;;1.90;0.70;;;9.80;87.00;;;;;;4976537;28;20447;-71
2023/03/10 04:48:28;;;;;;;1.93;0.83;;;9.80;87.20;;;;;;4976566;28;20454;-72
2023/03/10 04:50:56;;;;;;;2.13;0.80;;;9.80;87.20;;;;;;4976756;28;20450;-71
2023/03/10 04:53:24;;;;;;;1.97;0.80;;;9.70;87.60;;;;;;4976901;28;20525;-71
2023/03/10 04:55:51;;;;;;;2.30;0.70;;;9.90;87.30;;;;;;4976627;28;20474;-72
2023/03/10 04:58:18;;;;;;;1.80;0.70;;;9.90;86.80;;;;;;4976660;28;20454;-72
2023/03/10 05:00:45;;;;;;;2.00;0.77;;;9.90;87.20;;;;;;4976427;28;20450;-71
2023/03/10 05:03:12;;;;;;;1.80;0.70;;;9.90;87.40;;;;;;4976380;28;20451;-71
2023/03/10 05:05:39;;;;;;;2.10;0.80;;;9.90;86.90;;;;;;4976102;28;20517;-71
2023/03/10 05:08:06;;;;;;;1.90;0.70;;;10.00;86.40;;;;;;4976037;28;20859;-71
2023/03/10 05:10:34;;;;;;;1.83;0.60;;;10.10;86.40;;;;;;4976514;28;20790;-71
2023/03/10 05:13:01;;;;;;;2.93;0.87;;;10.00;85.90;;;;;;4976003;28;20490;-71
2023/03/10 05:15:28;;;;;;;1.87;0.70;;;10.00;86.00;;;;;;4975648;28;20493;-71
2023/03/10 05:17:55;;;;;;;2.20;0.90;;;9.90;86.10;;;;;;4974905;28;20917;-71
2023/03/10 05:20:22;;;;;;;2.10;0.80;;;9.80;86.70;;;;;;4975580;28;20447;-71
2023/03/10 05:22:48;;;;;;;3.70;1.83;;;9.70;86.80;;;;;;4975599;28;20475;-71
2023/03/10 05:25:15;;;;;;;2.30;0.83;;;9.70;86.80;;;;;;4975673;28;20474;-71
2023/03/10 05:27:43;;;;;;;2.17;0.70;;;9.60;86.90;;;;;;4975528;28;20454;-70
2023/03/10 05:30:13;;;;;;;2.93;0.83;;;9.60;86.80;;;;;;4975399;28;20482;-71
2023/03/10 05:32:39;;;;;;;1.90;0.80;;;9.70;86.80;;;;;;4975349;28;21077;-71
2023/03/10 05:35:07;;;;;;;2.67;0.77;;;9.50;87.00;;;;;;4975402;28;20474;-71
2023/03/10 05:37:38;;;;;;;2.47;0.90;;;9.60;87.40;;;;;;4975545;28;20513;-71
2023/03/10 05:40:06;;;;;;;3.70;1.10;;;9.70;86.80;;;;;;4975721;28;20447;-71
2023/03/10 05:42:33;;;;;;;2.13;0.90;;;9.90;86.20;;;;;;4975184;28;20826;-71
2023/03/10 05:45:01;;;;;;;2.13;0.70;;;9.90;85.90;;;;;;4975546;28;20470;-71
2023/03/10 05:47:28;;;;;;;2.30;1.00;;;10.00;85.50;;;;;;4975492;28;20469;-71
2023/03/10 05:49:54;;;;;;;2.10;0.93;;;9.90;85.50;;;;;;4975219;28;20447;-70
2023/03/10 05:52:21;;;;;;;3.63;1.00;;;10.00;85.60;;;;;;4975542;28;20545;-71
2023/03/10 05:54:48;;;;;;;2.90;0.90;;;10.00;85.50;;;;;;4975641;28;20529;-71
2023/03/10 05:57:14;;;;;;;2.30;1.00;;;10.10;85.40;;;;;;4975006;28;20454;-70
2023/03/10 05:59:41;;;;;;;2.10;0.90;;;10.10;85.30;;;;;;4975036;28;20947;-71
2023/03/10 06:02:09;;;;;;;2.83;0.90;;;10.00;85.50;;;;;;4975095;28;20944;-71
2023/03/10 06:04:36;;;;;;;2.20;0.80;;;10.00;85.90;;;;;;4975048;28;20831;-71
2023/03/10 06:07:05;;;;;;;2.00;0.90;;;10.00;86.30;;;;;;4975113;28;20501;-71
2023/03/10 06:09:32;;;;;;;3.50;1.13;;;9.90;87.50;;;;;;4975245;28;20454;-71
2023/03/10 06:12:00;;;;;;;2.30;0.90;;;9.70;88.80;;;;;;4974685;28;20947;-71
2023/03/10 06:14:27;;;;;;;2.30;0.80;;;9.40;90.60;;;;;;4974586;28;20601;-72
2023/03/10 06:16:54;;;;;;;2.57;0.90;;;9.20;91.80;;;;;;4974813;28;20446;-71
2023/03/10 06:19:23;;;;;;;1.90;0.70;;;9.20;92.60;;;;;;4974493;28;20962;-71
2023/03/10 06:21:50;;;;;;;2.40;0.80;;;9.20;92.90;;;;;;4974766;28;20446;-72
2023/03/10 06:24:17;;;;;;;1.90;0.80;;;9.10;91.50;;;;;;4974694;28;20473;-71
2023/03/10 06:26:43;;;;;;;1.90;0.70;;;9.20;91.30;;;;;;4974563;28;20447;-70
2023/03/10 06:29:10;;;;;;;1.90;0.80;;;9.10;89.60;;;;;;4973643;28;20450;-71
2023/03/10 06:31:37;;;;;;;2.10;0.80;;;9.00;90.10;;;;;;4974459;28;20517;-71
2023/03/10 06:34:07;;;;;;;2.40;1.00;;;8.90;91.00;;;;;;4974258;28;20498;-71
2023/03/10 06:36:36;;;;;;;1.90;0.70;;;8.90;91.60;;;;;;4974124;28;20437;-70
2023/03/10 06:39:03;;;;;;;2.03;0.80;;;9.00;91.80;;;;;;4974236;28;20452;-71
2023/03/10 06:41:29;;;;;;;1.90;0.70;;;9.00;91.50;;;;;;4974194;28;20447;-71
2023/03/10 06:43:56;;;;;;;1.90;0.70;;;9.10;91.20;;;;;;4973887;28;20484;-71
2023/03/10 06:46:24;;;;;;;2.93;0.87;;;9.10;91.30;;;;;;4973939;28;20500;-71
2023/03/10 06:48:51;;;;;;;1.90;0.70;;;9.20;91.30;;;;;;4973845;28;20843;-71
2023/03/10 06:51:19;;;;;;;2.10;0.80;;;9.10;90.70;;;;;;4974103;28;20450;-71
2023/03/10 06:53:48;;;;;;;2.00;0.70;;;9.00;91.20;;;;;;4974089;28;20482;-72
2023/03/10 06:56:17;;;;;;;1.83;0.70;;;9.00;91.60;;;;;;4974071;28;20493;-71
2023/03/10 06:58:45;;;;;;;1.80;0.63;;;9.00;91.50;;;;;;4974274;28;20828;-70
2023/03/10 07:01:22;;;;;;;1.90;0.70;;;10.00;90.70;;;;;;4973803;28;20443;-70
2023/03/10 07:03:48;;;;;;;1.90;0.70;;;10.20;87.40;;;;;;4974038;28;20431;-70
2023/03/10 07:06:15;;;;;;;2.20;0.70;;;10.20;87.50;;;;;;4973953;28;20450;-70
2023/03/10 07:08:41;;;;;;;2.17;0.63;;;10.30;87.50;;;;;;4974029;28;20504;-70
2023/03/10 07:11:10;;;;;;;2.10;0.90;;;11.00;85.80;;;;;;4973969;28;20454;-71
2023/03/10 07:13:37;;;;;;;2.07;0.80;;;11.30;83.30;;;;;;4973942;28;20485;-71
2023/03/10 07:16:04;;;;;;;1.80;0.70;;;11.40;83.70;;;;;;4973516;28;20520;-70
2023/03/10 07:18:31;;;;;;;1.80;0.60;;;11.50;84.00;;;;;;4973860;28;20465;-71
2023/03/10 07:20:58;;;;;;;1.90;0.70;;;11.40;83.40;;;;;;4973928;28;20802;-71
2023/03/10 07:23:25;;;;;;;1.90;0.60;;;11.30;83.90;;;;;;4974178;28;20446;-71
2023/03/10 07:25:53;;;;;;;1.97;0.83;;;11.30;84.90;;;;;;4973719;28;20478;-71
2023/03/10 07:28:20;;;;;;;2.30;0.83;;;11.10;84.70;;;;;;4973722;28;20458;-71
2023/03/10 07:30:48;;;;;;;3.40;0.70;;;11.00;85.70;;;;;;4973874;28;20454;-71
2023/03/10 07:33:14;;;;;;;1.83;0.63;;;11.30;85.00;;;;;;4973969;28;20490;-71
2023/03/10 07:35:41;;;;;;;2.63;0.90;;;11.20;85.10;;;;;;4974041;28;20470;-71
2023/03/10 07:38:08;;;;;;;2.00;0.80;;;11.30;85.30;;;;;;4974182;28;20501;-71
2023/03/10 07:40:35;;;;;;;1.83;0.73;;;11.30;85.30;;;;;;4975469;28;20960;-71
2023/03/10 07:43:01;;;;;;;2.90;0.90;;;11.10;85.30;;;;;;4977998;28;20441;-71
2023/03/10 07:45:32;;;;;;;1.93;0.70;;;10.90;86.50;;;;;;4977719;28;20466;-71
2023/03/10 07:47:59;;;;;;;1.80;0.80;;;11.00;87.30;;;;;;4977891;28;20441;-71
2023/03/10 07:50:25;;;;;;;2.20;0.73;;;10.90;86.90;;;;;;4977715;28;20454;-71
2023/03/10 07:52:53;;;;;;;2.00;0.80;;;10.70;87.10;;;;;;4977584;28;20536;-70
2023/03/10 07:55:21;;;;;;;2.27;0.70;;;10.70;88.60;;;;;;4977600;28;20474;-71
2023/03/10 07:57:48;;;;;;;2.50;0.80;;;10.90;88.00;;;;;;4977528;28;20446;-70
2023/03/10 08:00:16;;;;;;;2.37;0.90;;;11.10;87.70;;;;;;4977404;28;20875;-71
2023/03/10 08:02:44;;;;;;;1.90;0.80;;;11.10;86.80;;;;;;4977130;28;20513;-72
2023/03/10 08:05:13;;;;;;;2.00;0.80;;;11.20;87.10;;;;;;4977584;28;20473;-71
2023/03/10 08:07:40;;;;;;;1.80;0.70;;;11.00;87.10;;;;;;4977192;28;20505;-70
2023/03/10 08:10:08;;;;;;;2.20;1.00;;;10.70;85.50;;;;;;4977231;28;20876;-72
2023/03/10 08:12:34;;;;;;;2.37;0.90;;;10.20;83.00;;;;;;4977125;28;20477;-70
2023/03/10 08:15:01;;;;;;;1.80;0.70;;;9.80;83.60;;;;;;4976666;28;20481;-71
2023/03/10 08:17:29;;;;;;;1.90;0.70;;;9.50;85.00;;;;;;4977394;28;20446;-71
2023/03/10 08:20:03;;;;;;;1.90;0.60;;;9.40;86.90;;;;;;4978414;28;20512;-72
2023/03/10 08:22:30;;;;;;;1.90;0.70;;;9.40;87.60;;;;;;4977871;28;20458;-71
2023/03/10 08:24:58;;;;;;;2.00;0.70;;;9.30;87.40;;;;;;4976608;28;20842;-71
2023/03/10 08:27:25;;;;;;;1.83;0.60;;;9.30;87.70;;;;;;4977223;28;20446;-71
2023/03/10 08:29:52;;;;;;;1.90;0.70;;;9.20;88.40;;;;;;4977130;28;20455;-71
2023/03/10 08:32:19;;;;;;;2.10;0.70;;;9.20;88.30;;;;;;4977033;28;20834;-71
2023/03/10 08:34:46;;;;;;;2.20;0.70;;;9.10;89.00;;;;;;4977183;28;20561;-71
2023/03/10 08:37:14;;;;;;;1.90;0.70;;;9.20;89.10;;;;;;4977079;28;20461;-71
2023/03/10 08:39:41;;;;;;;2.07;0.73;;;9.20;88.70;;;;;;4977911;28;20458;-70
2023/03/10 08:42:13;;;;;;;1.90;0.77;;;9.30;89.30;;;;;;4978476;28;21034;-71
2023/03/10 08:44:40;;;;;;;1.90;0.70;;;9.40;88.90;;;;;;4977543;28;20497;-71
2023/03/10 08:47:07;;;;;;;1.80;0.60;;;9.40;89.00;;;;;;4977873;28;20458;-71
2023/03/10 08:49:34;;;;;;;1.80;0.60;;;9.50;89.50;;;;;;4977949;28;20832;-71
2023/03/10 08:52:01;;;;;;;2.00;0.80;;;9.80;90.70;;;;;;4977666;28;20454;-71
2023/03/10 08:54:29;;;;;;;2.33;0.90;;;10.10;89.60;;;;;;4978413;28;20497;-72
2023/03/10 08:59:46;;;;;;;2.20;0.83;;;10.30;87.80;;;;;;4978140;28;20525;-72
2023/03/10 09:02:30;;;;;;;2.00;0.70;;;10.70;89.20;;;;;;4981833;28;20454;-72
2023/03/10 09:04:56;;;;;;;2.00;0.73;;;11.30;88.70;;;;;;4978727;28;20500;-72
2023/03/10 09:07:23;;;;;;;1.80;0.70;;;11.90;86.30;;;;;;4977673;28;20455;-73
2023/03/10 09:09:51;;;;;;;1.90;0.80;;;12.20;84.40;;;;;;4977049;28;20453;-72
2023/03/10 09:12:18;;;;;;;3.03;0.97;;;12.40;83.70;;;;;;4977105;28;20453;-72
2023/03/10 09:14:44;;;;;;;2.53;0.77;;;12.50;82.70;;;;;;4976791;28;20493;-72
2023/03/10 09:17:11;;;;;;;2.03;0.80;;;12.40;80.70;;;;;;4976772;28;20453;-71
2023/03/10 09:19:38;;;;;;;2.50;0.80;;;12.20;82.30;;;;;;4976923;28;20453;-71
2023/03/10 09:22:05;;;;;;;2.27;0.80;;;12.10;82.30;;;;;;4976708;28;20457;-72
2023/03/10 09:24:32;;;;;;;2.73;1.00;;;11.90;82.30;;;;;;4976289;28;20817;-71
2023/03/10 09:27:00;;;;;;;2.30;0.80;;;11.70;81.90;;;;;;4976429;28;20458;-71
2023/03/10 09:29:27;;;;;;;2.20;0.87;;;11.50;82.80;;;;;;4976135;28;20464;-73
2023/03/10 09:31:53;;;;;;;1.90;0.80;;;11.60;83.80;;;;;;4976230;28;20449;-71
2023/03/10 09:34:20;;;;;;;2.00;0.80;;;11.60;82.20;;;;;;4977014;28;20493;-72
2023/03/10 09:36:47;;;;;;;2.10;0.90;;;11.80;84.20;;;;;;4976200;28;20446;-72
2023/03/10 09:39:13;;;;;;;2.83;1.20;;;11.70;79.50;;;;;;4975861;28;20481;-72
2023/03/10 09:42:03;;;;;;;2.10;0.90;;;11.50;80.20;;;;;;4976139;28;20454;-71
2023/03/10 09:44:37;;;;;;;2.70;1.13;;;11.40;81.10;;;;;;4975377;28;20463;-72
2023/03/10 09:47:22;;;;;;;3.03;1.30;;;11.30;82.00;;;;;;4976536;28;20430;-72
2023/03/10 09:50:13;;;;;;;3.00;1.00;;;11.20;83.50;;;;;;4975951;28;20462;-72
2023/03/10 09:52:45;;;;;;;2.20;0.90;;;11.10;82.70;;;;;;4976183;28;20455;-71
2023/03/10 09:55:19;;;;;;;3.90;1.00;;;11.10;82.80;;;;;;4975932;28;21093;-71
2023/03/10 09:57:50;;;;;;;2.83;0.90;;;11.00;83.30;;;;;;4975686;28;20490;-72
2023/03/10 10:00:23;;;;;;;2.10;0.80;;;10.70;83.40;;;;;;4975508;28;20442;-71
2023/03/10 10:02:56;;;;;;;2.77;1.50;;;10.60;84.20;;;;;;4975032;28;20916;-71
2023/03/10 10:05:26;;;;;;;3.80;0.90;;;10.60;84.30;;;;;;4975123;28;20868;-71
2023/03/10 10:07:57;;;;;;;1.87;0.80;;;10.60;83.70;;;;;;4975326;28;20546;-71
2023/03/10 10:10:25;;;;;;;2.20;1.00;;;10.70;83.60;;;;;;4976003;28;20465;-71
2023/03/10 10:12:54;;;;;;;1.97;0.80;;;10.70;84.10;;;;;;4975499;28;20450;-71
2023/03/10 10:15:23;;;;;;;2.00;0.70;;;10.60;84.00;;;;;;4975049;28;20512;-72
2023/03/10 10:18:11;;;;;;;2.10;0.80;;;10.50;84.00;;;;;;4974880;28;20446;-72
2023/03/10 10:20:43;;;;;;;2.00;0.80;;;10.60;84.60;;;;;;4974821;28;20435;-71
2023/03/10 10:23:18;;;;;;;1.90;0.70;;;10.60;83.40;;;;;;4974644;28;20451;-71
2023/03/10 10:25:45;;;;;;;2.30;0.90;;;10.70;84.00;;;;;;4974581;28;20557;-71
2023/03/10 10:28:21;;;;;;;2.90;1.00;;;10.90;84.00;;;;;;4974378;28;20450;-70
2023/03/10 10:30:48;;;;;;;2.33;0.90;;;10.80;83.00;;;;;;4974741;28;20923;-72
2023/03/10 10:33:15;;;;;;;1.90;0.70;;;10.70;83.60;;;;;;4974919;28;20450;-71
2023/03/10 10:35:44;;;;;;;2.27;0.70;;;10.70;83.50;;;;;;4974473;28;20510;-71
2023/03/10 10:38:24;;;;;;;1.80;0.70;;;10.70;84.30;;;;;;4974602;28;20873;-71
2023/03/10 10:40:56;;;;;;;2.23;0.90;;;10.50;83.50;;;;;;4974330;28;20460;-72
2023/03/10 10:43:25;;;;;;;2.00;0.80;;;10.60;84.20;;;;;;4975063;28;20450;-72
2023/03/10 10:45:54;;;;;;;3.23;0.90;;;10.70;84.90;;;;;;4974525;28;20478;-71
2023/03/10 10:48:39;;;;;;;2.40;1.00;;;10.50;83.90;;;;;;4974351;28;20450;-71
2023/03/10 10:51:18;;;;;;;2.70;1.00;;;10.40;85.70;;;;;;4973936;28;20885;-71
2023/03/10 10:53:45;;;;;;;3.17;1.20;;;10.40;85.70;;;;;;4974035;28;20994;-72
2023/03/10 10:56:15;;;;;;;2.40;1.30;;;10.50;86.50;;;;;;4974444;28;20450;-71
2023/03/10 10:58:44;;;;;;;1.87;0.70;;;10.60;85.60;;;;;;4974356;28;20454;-70
2023/03/10 11:01:13;;;;;;;5.73;3.27;;;10.60;84.40;;;;;;4974039;28;20944;-71
2023/03/10 11:03:41;;;;;;;2.00;0.80;;;10.60;84.80;;;;;;4974492;28;20453;-70
2023/03/10 11:06:25;;;;;;;1.90;0.70;;;10.70;83.90;;;;;;4975427;28;20457;-71
2023/03/10 11:09:04;;;;;;;2.47;0.80;;;10.90;84.50;;;;;;4974941;28;20439;-71
2023/03/10 11:11:37;;;;;;;2.77;1.00;;;11.00;81.90;;;;;;4974783;28;20438;-71
2023/03/10 11:14:18;;;;;;;2.20;1.20;;;11.00;83.80;;;;;;4974832;28;20485;-71
2023/03/10 11:16:51;;;;;;;1.93;0.70;;;11.10;82.30;;;;;;4978364;28;20470;-73
2023/03/10 11:19:26;;;;;;;2.20;0.80;;;10.90;80.00;;;;;;4979592;28;20469;-71
2023/03/10 11:22:00;;;;;;;2.10;0.90;;;10.70;79.90;;;;;;4978096;28;20796;-71
2023/03/10 11:24:36;;;;;;;2.33;0.80;;;10.60;80.80;;;;;;4977937;28;20837;-72
2023/03/10 11:27:13;;;;;;;2.63;1.10;;;10.50;81.70;;;;;;4977945;28;20855;-71
2023/03/10 11:29:59;;;;;;;2.60;0.80;;;10.60;82.10;;;;;;4978117;28;20850;-71
2023/03/10 11:32:33;;;;;;;3.47;0.80;;;10.60;81.90;;;;;;4978399;28;20442;-71
2023/03/10 11:35:13;;;;;;;2.60;1.00;;;10.70;83.40;;;;;;4977792;28;20901;-71
2023/03/10 11:37:46;;;;;;;1.80;0.70;;;10.80;81.70;;;;;;4977684;28;20443;-70
2023/03/10 11:40:19;;;;;;;2.63;0.83;;;11.00;81.40;;;;;;4977558;28;20438;-71
2023/03/10 11:42:51;;;;;;;3.80;0.80;;;11.00;82.20;;;;;;4977330;28;20439;-71
2023/03/10 11:45:27;;;;;;;1.90;0.80;;;10.90;82.20;;;;;;4977386;28;20499;-71
2023/03/10 11:48:16;;;;;;;2.50;0.87;;;10.90;83.10;;;;;;4977622;28;20860;-72
2023/03/10 11:50:49;;;;;;;2.17;0.80;;;10.80;81.60;;;;;;4977587;28;20493;-70
2023/03/10 11:53:21;;;;;;;2.23;0.60;;;10.70;83.50;;;;;;4977230;28;20456;-71
2023/03/10 11:55:49;;;;;;;2.00;0.80;;;10.60;82.80;;;;;;4977015;28;20489;-71
2023/03/10 11:58:24;;;;;;;2.43;0.90;;;10.80;84.10;;;;;;4977418;28;20453;-70
2023/03/10 12:00:54;;;;;;;2.40;1.00;;;10.90;81.80;;;;;;4977318;28;20434;-70
2023/03/10 12:03:29;;;;;;;2.40;0.80;;;11.00;81.70;;;;;;4977125;28;20943;-71
2023/03/10 12:05:58;;;;;;;1.90;0.73;;;10.90;81.60;;;;;;4977470;28;21001;-71
2023/03/10 12:08:29;;;;;;;1.90;0.73;;;11.00;81.60;;;;;;4977283;28;20869;-72
2023/03/10 12:10:56;;;;;;;2.40;0.80;;;11.10;81.30;;;;;;4977324;28;20441;-72
2023/03/10 12:13:25;;;;;;;1.90;0.90;;;11.20;81.10;;;;;;4977357;28;20828;-72
2023/03/10 12:15:58;;;;;;;1.93;0.70;;;11.10;80.50;;;;;;4977235;28;20501;-73
2023/03/10 12:18:25;;;;;;;1.90;0.70;;;11.30;80.80;;;;;;4977736;28;20457;-72
2023/03/10 12:21:15;;;;;;;1.93;0.70;;;11.50;79.10;;;;;;4977489;28;20450;-72
2023/03/10 12:23:44;;;;;;;3.50;0.90;;;11.50;77.30;;;;;;4977119;28;20437;-72
2023/03/10 12:26:10;;;;;;;2.37;0.80;;;11.40;78.70;;;;;;4976383;28;20454;-72
2023/03/10 12:28:38;;;;;;;1.90;0.80;;;11.40;79.50;;;;;;4976354;28;20971;-71
2023/03/10 12:31:09;;;;;;;2.10;1.00;;;11.40;79.30;;;;;;4977092;28;20454;-72
2023/03/10 12:33:41;;;;;;;2.00;0.70;;;11.30;79.20;;;;;;4977129;28;20439;-72
2023/03/10 12:36:11;;;;;;;2.20;0.70;;;11.10;79.70;;;;;;4977419;28;20493;-72
2023/03/10 12:38:48;;;;;;;2.50;0.70;;;11.10;81.90;;;;;;4978126;28;20454;-72
2023/03/10 12:41:40;;;;;;;2.00;0.80;;;11.10;80.40;;;;;;4976659;28;21000;-73
2023/03/10 12:44:35;;;;;;;2.00;0.80;;;11.10;81.70;;;;;;4976975;28;20477;-73
2023/03/10 12:47:29;;;;;;;2.37;0.80;;;11.10;81.10;;;;;;4976886;28;20437;-72
2023/03/10 12:50:00;;;;;;;2.13;1.13;;;11.00;82.30;;;;;;4976104;28;20804;-73
2023/03/10 12:52:34;;;;;;;2.33;0.70;;;11.00;81.90;;;;;;4976534;28;20430;-72
2023/03/10 12:55:15;;;;;;;2.00;0.70;;;11.10;81.50;;;;;;4976016;28;20891;-73
2023/03/10 12:57:50;;;;;;;1.97;0.60;;;11.10;82.50;;;;;;4976417;28;20444;-72
2023/03/10 13:00:27;;;;;;;2.10;0.80;;;11.00;81.30;;;;;;4976337;28;20434;-73
2023/03/10 13:03:00;;;;;;;2.10;0.63;;;10.90;82.20;;;;;;4976119;28;20434;-72
2023/03/10 13:05:30;;;;;;;1.70;0.60;;;10.90;82.50;;;;;;4976303;28;21103;-71
2023/03/10 13:08:01;;;;;;;2.00;0.67;;;10.70;82.90;;;;;;4976264;28;20798;-72
2023/03/10 13:10:30;;;;;;;1.83;0.70;;;10.70;84.20;;;;;;4976373;28;20438;-73
2023/03/10 13:13:01;;;;;;;2.10;0.70;;;10.60;83.70;;;;;;4976605;28;20458;-73
2023/03/10 13:15:30;;;;;;;1.70;0.60;;;10.60;82.90;;;;;;4976347;28;20498;-72
2023/03/10 13:18:11;;;;;;;1.77;0.60;;;10.30;83.50;;;;;;4976810;28;20458;-73
2023/03/10 13:20:38;;;;;;;2.10;0.60;;;10.20;83.20;;;;;;4976799;28;20915;-73
2023/03/10 13:23:06;;;;;;;1.80;0.67;;;10.20;82.90;;;;;;4976216;28;20549;-73
2023/03/10 13:25:35;;;;;;;1.90;0.70;;;10.20;83.20;;;;;;4975716;28;20999;-72
2023/03/10 13:28:10;;;;;;;1.83;0.70;;;10.40;82.20;;;;;;4975982;28;20548;-73
2023/03/10 13:30:36;;;;;;;2.03;0.70;;;10.30;82.70;;;;;;4976030;28;20469;-72
2023/03/10 13:33:03;;;;;;;1.80;0.70;;;10.20;84.40;;;;;;4976588;28;20477;-71
2023/03/10 13:35:34;;;;;;;1.80;0.60;;;10.30;84.50;;;;;;4975374;28;20908;-73
2023/03/10 13:38:06;;;;;;;1.70;0.60;;;10.20;84.80;;;;;;4976423;28;20494;-71
2023/03/10 13:40:32;;;;;;;1.90;0.60;;;10.40;84.00;;;;;;4975958;28;20449;-70
2023/03/10 13:42:59;;;;;;;1.80;0.70;;;10.30;83.60;;;;;;4975432;28;20955;-73
2023/03/10 13:45:32;;;;;;;1.80;0.60;;;10.40;83.70;;;;;;4975602;28;20481;-72
2023/03/10 13:48:00;;;;;;;1.77;0.57;;;10.60;82.60;;;;;;4976638;28;20533;-72
2023/03/10 13:50:27;;;;;;;1.73;0.60;;;10.50;83.50;;;;;;4975535;28;20450;-72
2023/03/10 13:52:58;;;;;;;1.80;0.60;;;10.50;82.80;;;;;;4975677;28;20462;-72
2023/03/10 13:55:26;;;;;;;1.80;0.50;;;10.30;82.10;;;;;;4975473;28;20494;-71
2023/03/10 13:57:54;;;;;;;1.73;0.63;;;10.20;82.50;;;;;;4975497;28;20458;-73
2023/03/10 14:00:24;;;;;;;1.70;0.50;;;10.10;83.10;;;;;;4975594;28;20458;-73
2023/03/10 14:02:53;;;;;;;1.70;0.50;;;9.90;83.50;;;;;;4975661;28;20461;-72
2023/03/10 14:05:42;;;;;;;1.80;0.60;;;9.80;84.80;;;;;;4975225;28;20471;-72
2023/03/10 14:08:21;;;;;;;1.70;0.60;;;9.90;86.00;;;;;;4975479;28;20444;-73
2023/03/10 14:10:47;;;;;;;6.53;0.80;;;10.20;86.10;;;;;;4975382;28;20487;-71
2023/03/10 14:13:39;;;;;;;1.80;0.60;;;10.30;84.10;;;;;;4975063;28;20454;-73
2023/03/10 14:16:07;;;;;;;2.03;0.80;;;10.00;84.70;;;;;;4975241;28;20548;-72
2023/03/10 14:18:36;;;;;;;2.10;0.80;;;10.10;84.70;;;;;;4975222;28;20456;-71
2023/03/10 14:21:22;;;;;;;1.70;0.60;;;10.20;85.50;;;;;;4974930;28;20450;-73
2023/03/10 14:23:52;;;;;;;1.80;0.70;;;10.20;83.70;;;;;;4974819;28;20465;-72
2023/03/10 14:26:19;;;;;;;1.90;0.60;;;10.20;84.40;;;;;;4974955;28;20457;-73
2023/03/10 14:28:45;;;;;;;1.77;0.60;;;10.20;85.40;;;;;;4974905;28;20458;-72
2023/03/10 14:31:20;;;;;;;1.80;0.60;;;10.00;84.50;;;;;;4974717;28;20442;-73
2023/03/10 14:33:47;;;;;;;1.80;0.60;;;10.10;86.10;;;;;;4975156;28;20807;-74
2023/03/10 14:36:27;;;;;;;1.80;0.60;;;10.10;85.40;;;;;;4974763;28;20490;-73
2023/03/10 14:38:55;;;;;;;1.80;0.60;;;10.10;85.10;;;;;;4975442;28;20537;-73
2023/03/10 14:41:25;;;;;;;1.80;0.60;;;10.20;85.30;;;;;;4975094;28;20952;-73
2023/03/10 14:43:51;;;;;;;1.93;0.60;;;10.20;84.10;;;;;;4975055;28;20478;-73
2023/03/10 14:46:18;;;;;;;1.77;0.60;;;10.30;84.90;;;;;;4975171;28;20493;-73
2023/03/10 14:48:47;;;;;;;1.70;0.60;;;10.30;85.10;;;;;;4975311;28;20453;-73
2023/03/10 14:51:16;;;;;;;1.90;0.60;;;10.30;85.10;;;;;;4974164;28;20462;-72
2023/03/10 14:53:43;;;;;;;1.77;0.60;;;10.30;84.70;;;;;;4975241;28;20450;-72
2023/03/10 14:56:15;;;;;;;1.80;0.60;;;10.20;85.20;;;;;;4974672;28;20490;-72
2023/03/10 14:58:46;;;;;;;1.90;0.80;;;10.20;85.90;;;;;;4975158;28;20787;-72
2023/03/10 15:01:12;;;;;;;1.80;0.70;;;10.10;86.50;;;;;;4974687;28;20439;-72
2023/03/10 15:03:40;;;;;;;1.80;0.60;;;10.00;87.00;;;;;;4974692;28;20485;-72
2023/03/10 15:06:06;;;;;;;2.47;0.67;;;10.10;87.30;;;;;;4974638;28;20557;-72
2023/03/10 15:08:33;;;;;;;1.80;0.60;;;10.10;87.50;;;;;;4974708;28;20454;-71
2023/03/10 15:11:00;;;;;;;1.83;0.70;;;10.10;87.70;;;;;;4974389;28;20873;-72
2023/03/10 15:13:28;;;;;;;1.87;0.70;;;10.20;87.70;;;;;;4974676;28;20450;-73
2023/03/10 15:15:54;;;;;;;1.80;0.67;;;10.10;87.40;;;;;;4974298;28;20501;-73
2023/03/10 15:18:25;;;;;;;1.73;0.60;;;10.00;86.80;;;;;;4974497;28;20501;-72
2023/03/10 15:20:57;;;;;;;1.80;0.60;;;10.00;86.60;;;;;;4974131;28;20923;-72
2023/03/10 15:23:23;;;;;;;1.83;0.57;;;9.70;85.80;;;;;;4974767;28;20447;-73
2023/03/10 15:25:54;;;;;;;1.80;0.70;;;9.40;84.80;;;;;;4974484;28;20470;-72
2023/03/10 15:28:21;;;;;;;1.90;0.60;;;9.30;85.90;;;;;;4974564;28;20461;-71
2023/03/10 15:30:54;;;;;;;1.80;0.60;;;9.30;85.10;;;;;;4974611;28;20476;-72
2023/03/10 15:33:22;;;;;;;1.80;0.60;;;9.30;84.90;;;;;;4974642;28;20485;-73
2023/03/10 15:35:49;;;;;;;2.67;0.60;;;9.20;84.10;;;;;;4974232;28;20513;-73
2023/03/10 15:38:16;;;;;;;2.00;0.60;;;9.20;82.30;;;;;;4974771;28;20469;-73
2023/03/10 15:40:43;;;;;;;1.90;0.70;;;9.10;82.70;;;;;;4974616;28;20456;-73
2023/03/10 15:43:10;;;;;;;1.80;0.60;;;9.00;80.80;;;;;;4974460;28;20458;-72
2023/03/10 15:45:41;;;;;;;2.37;0.70;;;8.80;81.00;;;;;;4974437;28;20549;-72
2023/03/10 15:48:10;;;;;;;1.90;0.70;;;8.70;80.20;;;;;;4975275;28;20442;-71
2023/03/10 15:50:36;;;;;;;1.90;0.70;;;8.70;82.20;;;;;;4974632;28;20438;-71
2023/03/10 15:53:03;;;;;;;2.50;0.80;;;8.90;82.10;;;;;;4974487;28;20453;-69
2023/03/10 15:55:30;;;;;;;1.93;0.80;;;8.90;81.00;;;;;;4974144;28;20498;-71
2023/03/10 15:57:57;;;;;;;1.90;0.80;;;9.20;81.00;;;;;;4974168;28;21009;-71
2023/03/10 16:00:27;;;;;;;2.30;0.70;;;9.20;79.70;;;;;;4973718;28;20462;-73
2023/03/10 16:02:54;;;;;;;2.00;0.80;;;9.40;78.50;;;;;;4977026;28;20536;-71
2023/03/10 16:05:22;;;;;;;2.10;0.70;;;9.30;77.60;;;;;;4977255;28;20466;-72
2023/03/10 16:07:49;;;;;;;2.00;0.80;;;9.20;77.20;;;;;;4978011;28;20453;-73
2023/03/10 16:10:19;;;;;;;3.53;0.83;;;9.10;77.00;;;;;;4977634;28;20533;-73
2023/03/10 16:12:46;;;;;;;2.00;0.80;;;8.90;77.20;;;;;;4983086;28;20505;-72
2023/03/10 16:15:13;;;;;;;2.40;1.00;;;8.90;76.20;;;;;;4982924;28;20920;-72
2023/03/10 16:17:40;;;;;;;2.30;0.90;;;8.90;76.00;;;;;;4977121;28;20506;-71
2023/03/10 16:20:10;;;;;;;2.63;0.80;;;8.90;75.30;;;;;;4977030;28;20457;-72
2023/03/10 16:22:40;;;;;;;2.27;1.00;;;9.00;75.50;;;;;;4977131;28;20465;-72
2023/03/10 16:25:08;;;;;;;2.90;1.33;;;9.00;74.90;;;;;;4977219;28;20473;-72
2023/03/10 16:27:35;;;;;;;2.03;0.80;;;9.00;74.50;;;;;;4976926;28;20533;-72
2023/03/10 16:30:02;;;;;;;2.40;0.87;;;9.00;74.50;;;;;;4977060;28;20554;-73
2023/03/10 16:32:29;;;;;;;2.00;0.90;;;8.90;75.10;;;;;;4977530;28;20481;-72
2023/03/10 16:34:55;;;;;;;3.90;0.97;;;8.90;74.50;;;;;;4976971;28;20474;-72
2023/03/10 16:37:25;;;;;;;2.27;0.97;;;8.90;75.00;;;;;;4977203;28;20533;-71
2023/03/10 16:39:54;;;;;;;2.60;1.10;;;8.80;75.30;;;;;;4976844;28;20955;-72
2023/03/10 16:42:21;;;;;;;2.10;1.00;;;8.80;75.20;;;;;;4976713;28;20526;-73
2023/03/10 16:44:48;;;;;;;3.10;1.10;;;8.80;75.70;;;;;;4976971;28;20521;-72
2023/03/10 16:47:15;;;;;;;2.70;0.90;;;8.70;76.20;;;;;;4977908;28;20442;-73
2023/03/10 16:49:41;;;;;;;2.10;0.90;;;8.70;77.30;;;;;;4976525;28;21009;-72
2023/03/10 16:52:09;;;;;;;2.40;0.90;;;8.60;79.20;;;;;;4976810;28;20454;-72
2023/03/10 16:54:37;;;;;;;2.33;0.90;;;8.70;78.10;;;;;;4976863;28;20509;-73
2023/03/10 16:57:06;;;;;;;2.37;1.00;;;8.40;76.70;;;;;;4976570;28;20478;-73
2023/03/10 16:59:33;;;;;;;2.20;0.97;;;8.20;76.50;;;;;;4976451;28;20968;-72
2023/03/10 17:02:00;;;;;;;2.30;0.83;;;8.10;76.80;;;;;;4976494;28;20450;-72
2023/03/10 17:04:27;;;;;;;2.57;1.07;;;7.90;76.00;;;;;;4976069;28;20845;-72
2023/03/10 17:06:54;;;;;;;2.07;1.07;;;7.90;76.50;;;;;;4976226;28;20480;-72